Time;durP1;ratioP1;P1;durP2;ratioP2;P2;SDS_P1;SDS_P2;PMS_P1;PMS_P2;Temp;Humidity;BMP_temperature;BMP_pressure;BME280_temperature;BME280_humidity;BME280_pressure;Samples;Min_cycle;Max_cycle;Signal;HPM_P1;HPM_P2
2023/03/10 00:02:05;;;;;;;27.33;16.87;;;1.00;99.90;;;;;;5040570;28;20067;-81
2023/03/10 00:04:31;;;;;;;28.53;17.33;;;1.00;99.90;;;;;;5062716;28;20049;-81
2023/03/10 00:06:57;;;;;;;27.97;17.10;;;1.00;99.90;;;;;;5034963;28;20454;-81
2023/03/10 00:09:22;;;;;;;29.47;17.83;;;1.00;99.90;;;;;;5031919;28;20048;-80
2023/03/10 00:11:48;;;;;;;27.30;16.50;;;1.00;99.90;;;;;;5050635;28;20041;-80
2023/03/10 00:14:15;;;;;;;32.80;18.63;;;1.00;99.90;;;;;;5064876;28;20119;-81
2023/03/10 00:16:41;;;;;;;28.80;18.57;;;1.00;99.90;;;;;;5033748;28;20040;-81
2023/03/10 00:19:06;;;;;;;29.53;17.77;;;1.00;99.90;;;;;;5046890;28;20036;-81
2023/03/10 00:21:33;;;;;;;29.97;19.07;;;1.00;99.90;;;;;;5044885;28;20040;-81
2023/03/10 00:23:59;;;;;;;29.97;19.00;;;1.00;99.90;;;;;;5045402;28;20480;-80
2023/03/10 00:26:26;;;;;;;29.97;18.17;;;1.00;99.90;;;;;;5059958;28;20068;-81
2023/03/10 00:28:53;;;;;;;30.30;19.27;;;1.00;99.90;;;;;;5050325;28;20082;-82
2023/03/10 00:31:21;;;;;;;30.33;19.37;;;1.00;99.90;;;;;;5066747;28;20040;-81
2023/03/10 00:33:47;;;;;;;33.03;19.80;;;1.00;99.90;;;;;;5043995;28;20075;-80
2023/03/10 00:36:19;;;;;;;30.57;18.60;;;1.00;99.90;;;;;;5049548;28;20051;-80
2023/03/10 00:38:45;;;;;;;30.92;19.10;;;1.00;99.90;;;;;;5062796;28;20060;-81
2023/03/10 00:41:17;;;;;;;27.97;18.53;;;1.00;99.90;;;;;;5056208;28;20048;-81
2023/03/10 00:43:43;;;;;;;29.55;17.83;;;1.00;99.90;;;;;;5045599;28;20051;-81
2023/03/10 00:46:10;;;;;;;27.90;17.77;;;1.00;99.90;;;;;;5068629;28;20104;-82
2023/03/10 00:48:36;;;;;;;28.50;16.63;;;1.00;99.90;;;;;;5048944;28;20045;-83
2023/03/10 00:51:03;;;;;;;27.97;16.77;;;1.00;99.90;;;;;;5064113;28;20551;-82
2023/03/10 00:53:29;;;;;;;25.40;15.73;;;1.00;99.90;;;;;;5060794;28;20041;-83
2023/03/10 00:56:03;;;;;;;27.77;17.07;;;1.00;99.90;;;;;;5061679;28;20037;-83
2023/03/10 00:58:30;;;;;;;27.07;16.60;;;1.00;99.90;;;;;;5059980;28;20072;-83
2023/03/10 01:00:57;;;;;;;27.37;16.40;;;1.00;99.90;;;;;;5064622;28;20412;-81
2023/03/10 01:03:24;;;;;;;25.67;15.97;;;1.00;99.90;;;;;;5024059;28;20037;-81
2023/03/10 01:05:50;;;;;;;26.13;15.67;;;1.00;99.90;;;;;;5042625;28;20060;-81
2023/03/10 01:08:16;;;;;;;25.27;15.77;;;1.00;99.90;;;;;;5064825;28;20483;-80
2023/03/10 01:10:43;;;;;;;26.47;16.17;;;1.00;99.90;;;;;;5063075;28;20036;-81
2023/03/10 01:13:11;;;;;;;25.23;15.50;;;1.00;99.90;;;;;;5062646;28;20037;-81
2023/03/10 01:15:38;;;;;;;26.20;15.57;;;1.00;99.90;;;;;;5044236;28;20090;-81
2023/03/10 01:18:04;;;;;;;26.97;16.03;;;1.00;99.90;;;;;;5058176;28;20581;-82
2023/03/10 01:20:31;;;;;;;26.33;16.47;;;1.00;99.90;;;;;;5048903;28;20037;-81
2023/03/10 01:22:57;;;;;;;24.97;16.27;;;1.00;99.90;;;;;;5063670;28;20053;-81
2023/03/10 01:25:23;;;;;;;25.77;15.33;;;1.00;99.90;;;;;;5067757;28;20446;-82
2023/03/10 01:27:49;;;;;;;26.70;16.23;;;1.00;99.90;;;;;;5043099;28;20052;-81
2023/03/10 01:30:15;;;;;;;25.17;16.30;;;1.00;99.90;;;;;;5047592;28;20553;-81
2023/03/10 01:32:40;;;;;;;27.30;17.33;;;1.00;99.90;;;;;;5044754;28;20048;-83
2023/03/10 01:35:07;;;;;;;26.30;16.60;;;1.00;99.90;;;;;;5051267;28;20040;-83
2023/03/10 01:37:33;;;;;;;27.20;16.37;;;1.00;99.90;;;;;;5056473;28;20459;-82
2023/03/10 01:39:59;;;;;;;28.27;17.23;;;1.00;99.90;;;;;;5067376;28;20124;-83
2023/03/10 01:42:25;;;;;;;26.97;16.53;;;1.00;99.90;;;;;;5060676;28;20052;-83
2023/03/10 01:45:08;;;;;;;27.33;16.90;;;1.00;99.90;;;;;;5051309;28;20048;-82
2023/03/10 01:47:33;;;;;;;29.70;17.67;;;1.10;99.90;;;;;;5062745;28;20057;-81
2023/03/10 01:50:00;;;;;;;29.50;16.63;;;1.00;99.90;;;;;;5044408;28;20051;-81
2023/03/10 01:52:29;;;;;;;26.27;16.13;;;1.00;99.90;;;;;;5045664;28;20044;-81
2023/03/10 01:55:01;;;;;;;27.87;17.13;;;1.00;99.90;;;;;;5062004;28;20141;-82
2023/03/10 01:57:31;;;;;;;27.85;17.83;;;1.00;99.90;;;;;;5063720;28;20597;-82
2023/03/10 01:59:57;;;;;;;29.50;17.87;;;1.00;99.90;;;;;;5051308;28;20483;-82
2023/03/10 02:02:24;;;;;;;26.33;17.03;;;1.00;99.90;;;;;;5065356;28;20033;-81
2023/03/10 02:04:51;;;;;;;29.20;17.97;;;1.00;99.90;;;;;;5047466;28;20040;-82
2023/03/10 02:07:20;;;;;;;30.00;17.83;;;1.00;99.90;;;;;;5048295;28;21215;-82
2023/03/10 02:09:49;;;;;;;28.23;18.20;;;1.00;99.90;;;;;;5064681;28;20040;-82
2023/03/10 02:12:16;;;;;;;29.37;18.20;;;1.00;99.90;;;;;;5063647;28;20036;-82
2023/03/10 02:14:46;;;;;;;29.83;18.27;;;1.00;99.90;;;;;;5063677;28;20051;-82
2023/03/10 02:17:18;;;;;;;34.47;20.40;;;1.10;99.90;;;;;;5063203;28;20036;-82
2023/03/10 02:20:05;;;;;;;27.58;18.13;;;1.00;99.90;;;;;;5070142;28;20036;-82
2023/03/10 02:22:32;;;;;;;31.53;20.07;;;1.00;99.90;;;;;;5045149;28;20395;-81
2023/03/10 02:25:07;;;;;;;33.30;20.57;;;1.00;99.90;;;;;;5046718;28;20108;-82
2023/03/10 02:27:35;;;;;;;37.30;21.90;;;1.10;99.90;;;;;;5051790;28;20048;-82
2023/03/10 02:30:13;;;;;;;39.93;23.50;;;1.10;99.90;;;;;;5055204;28;20337;-82
2023/03/10 02:32:44;;;;;;;37.13;22.23;;;1.10;99.90;;;;;;5040401;28;20097;-81
2023/03/10 02:35:10;;;;;;;40.43;22.83;;;1.10;99.90;;;;;;5059807;28;20559;-81
2023/03/10 02:37:36;;;;;;;40.27;23.13;;;1.00;99.90;;;;;;5051426;28;20499;-82
2023/03/10 02:40:04;;;;;;;37.40;23.13;;;1.10;99.90;;;;;;5065474;28;20040;-82
2023/03/10 02:42:33;;;;;;;36.57;22.43;;;1.10;99.90;;;;;;5034655;28;20060;-82
2023/03/10 02:44:59;;;;;;;39.87;23.73;;;1.00;99.90;;;;;;5063339;28;20037;-83
2023/03/10 02:47:25;;;;;;;42.90;24.73;;;1.10;99.90;;;;;;5058201;28;20111;-81
2023/03/10 02:49:51;;;;;;;41.93;23.83;;;1.00;99.90;;;;;;5063435;28;20488;-82
2023/03/10 02:52:37;;;;;;;42.60;25.37;;;1.00;99.90;;;;;;5068081;28;20369;-82
2023/03/10 02:55:02;;;;;;;42.97;24.10;;;1.00;99.90;;;;;;5062792;28;20048;-82
2023/03/10 02:57:28;;;;;;;41.63;23.83;;;1.00;99.90;;;;;;5067073;28;20041;-82
2023/03/10 02:59:54;;;;;;;38.23;22.73;;;1.00;99.90;;;;;;5044159;28;20045;-81
2023/03/10 03:02:19;;;;;;;44.13;24.67;;;1.00;99.90;;;;;;5057013;28;20484;-81
2023/03/10 03:04:45;;;;;;;40.27;24.80;;;1.00;99.90;;;;;;5030287;28;20460;-81
2023/03/10 03:07:11;;;;;;;41.47;24.83;;;1.00;99.90;;;;;;5059513;28;20097;-80
2023/03/10 03:09:36;;;;;;;40.30;22.93;;;1.00;99.90;;;;;;5023947;28;20037;-82
2023/03/10 03:12:02;;;;;;;38.50;22.97;;;1.00;99.90;;;;;;5059806;28;20113;-81
2023/03/10 03:14:28;;;;;;;37.73;22.40;;;1.00;99.90;;;;;;5056581;28;20492;-82
2023/03/10 03:16:54;;;;;;;38.63;21.93;;;1.00;99.90;;;;;;5060977;28;20498;-81
2023/03/10 03:19:19;;;;;;;35.70;20.37;;;1.00;99.90;;;;;;5061657;28;20032;-83
2023/03/10 03:21:48;;;;;;;33.77;20.80;;;1.00;99.90;;;;;;5044818;28;20511;-81
2023/03/10 03:24:16;;;;;;;35.37;19.63;;;1.00;99.90;;;;;;5047571;28;20115;-82
2023/03/10 03:26:43;;;;;;;33.27;19.60;;;1.00;99.90;;;;;;5043767;28;20111;-81
2023/03/10 03:29:10;;;;;;;32.73;18.20;;;1.00;99.90;;;;;;5062779;28;20098;-82
2023/03/10 03:31:37;;;;;;;31.47;18.50;;;1.00;99.90;;;;;;5045760;28;20120;-81
2023/03/10 03:34:03;;;;;;;33.47;19.13;;;1.00;99.90;;;;;;5062882;28;20052;-81
2023/03/10 03:36:29;;;;;;;32.23;18.60;;;1.00;99.90;;;;;;5060250;28;20174;-81
2023/03/10 03:38:55;;;;;;;32.43;18.43;;;1.00;99.90;;;;;;5046830;28;20781;-81
2023/03/10 03:41:20;;;;;;;30.93;18.80;;;1.00;99.90;;;;;;5063449;28;20032;-80
2023/03/10 03:43:46;;;;;;;29.93;18.80;;;0.90;99.90;;;;;;5059556;28;20388;-82
2023/03/10 03:46:12;;;;;;;29.47;17.60;;;1.00;99.90;;;;;;5049678;28;20041;-81
2023/03/10 03:48:38;;;;;;;29.53;18.57;;;1.00;99.90;;;;;;5063330;28;20051;-81
2023/03/10 03:51:04;;;;;;;29.27;17.17;;;1.00;99.90;;;;;;5050347;28;20129;-81
2023/03/10 03:53:29;;;;;;;29.93;17.57;;;1.00;99.90;;;;;;5059880;28;20127;-81
2023/03/10 03:55:55;;;;;;;27.83;16.23;;;1.00;99.90;;;;;;5043850;28;20111;-81
2023/03/10 03:58:21;;;;;;;28.13;15.97;;;1.00;99.90;;;;;;5057789;28;20048;-82
2023/03/10 04:00:47;;;;;;;27.33;17.03;;;1.00;99.90;;;;;;5024156;28;20032;-81
2023/03/10 04:03:13;;;;;;;30.90;17.03;;;1.00;99.90;;;;;;5041318;28;20508;-81
2023/03/10 04:05:39;;;;;;;29.40;16.73;;;1.00;99.90;;;;;;5062945;28;20045;-80
2023/03/10 04:08:05;;;;;;;27.07;16.23;;;1.00;99.90;;;;;;5066375;28;20040;-81
2023/03/10 04:10:31;;;;;;;28.30;17.27;;;1.00;99.90;;;;;;5050343;28;20044;-81
2023/03/10 04:12:56;;;;;;;28.83;17.17;;;1.00;99.90;;;;;;5036867;28;20581;-79
2023/03/10 04:15:22;;;;;;;26.73;16.77;;;1.00;99.90;;;;;;5058969;28;20033;-80
2023/03/10 04:17:48;;;;;;;26.93;15.80;;;1.00;99.90;;;;;;5055636;28;20405;-81
2023/03/10 04:20:14;;;;;;;27.47;16.67;;;1.00;99.90;;;;;;5062341;28;20072;-81
2023/03/10 04:22:40;;;;;;;24.93;15.40;;;1.00;99.90;;;;;;5063857;28;20442;-80
2023/03/10 04:25:07;;;;;;;26.23;15.57;;;1.00;99.90;;;;;;5044167;28;20049;-80
2023/03/10 04:27:33;;;;;;;27.63;16.03;;;1.00;99.90;;;;;;5058302;28;20535;-80
2023/03/10 04:29:59;;;;;;;25.53;15.63;;;1.00;99.90;;;;;;5042385;28;20484;-80
2023/03/10 04:32:25;;;;;;;26.10;15.57;;;1.00;99.90;;;;;;5061069;28;20117;-81
2023/03/10 04:34:51;;;;;;;26.27;15.17;;;1.00;99.90;;;;;;5035880;28;20270;-81
2023/03/10 04:37:19;;;;;;;24.63;15.47;;;1.00;99.90;;;;;;5048783;28;20537;-80
2023/03/10 04:39:44;;;;;;;26.70;15.67;;;1.00;99.90;;;;;;5070819;28;20045;-80
2023/03/10 04:42:10;;;;;;;22.70;14.53;;;1.00;99.90;;;;;;5060447;28;20492;-79
2023/03/10 04:44:36;;;;;;;26.40;15.90;;;1.00;99.90;;;;;;5064932;28;20043;-80
2023/03/10 04:47:02;;;;;;;25.93;15.67;;;1.00;99.90;;;;;;5065951;28;20600;-80
2023/03/10 04:49:28;;;;;;;26.60;16.07;;;1.00;99.90;;;;;;5061510;28;20072;-80
2023/03/10 04:51:54;;;;;;;26.47;16.17;;;1.00;99.90;;;;;;5051094;28;20424;-81
2023/03/10 04:54:19;;;;;;;26.37;15.87;;;0.90;99.90;;;;;;5044088;28;20044;-81
2023/03/10 04:56:45;;;;;;;26.47;15.90;;;1.00;99.90;;;;;;5058032;28;20613;-79
2023/03/10 04:59:11;;;;;;;29.70;15.80;;;1.00;99.90;;;;;;5047128;28;20040;-81
2023/03/10 05:01:37;;;;;;;28.93;16.70;;;1.00;99.90;;;;;;5066738;28;20120;-80
2023/03/10 05:04:04;;;;;;;26.60;16.10;;;0.90;99.90;;;;;;5054240;28;20041;-80
2023/03/10 05:06:30;;;;;;;28.97;16.13;;;1.00;99.90;;;;;;5056984;28;20515;-81
2023/03/10 05:08:56;;;;;;;30.83;17.37;;;1.00;99.90;;;;;;5063199;28;20048;-80
2023/03/10 05:11:22;;;;;;;31.33;17.03;;;1.00;99.90;;;;;;5040991;28;20041;-80
2023/03/10 05:13:49;;;;;;;31.47;17.50;;;0.90;99.90;;;;;;5061061;28;20051;-81
2023/03/10 05:16:17;;;;;;;32.67;17.70;;;0.90;99.90;;;;;;5063814;28;20044;-82
2023/03/10 05:18:43;;;;;;;33.63;18.07;;;0.90;99.90;;;;;;5061680;28;20464;-81
2023/03/10 05:21:09;;;;;;;29.53;17.87;;;0.90;99.90;;;;;;5045743;28;20037;-83
2023/03/10 05:23:35;;;;;;;34.57;19.33;;;0.90;99.90;;;;;;5043604;28;20106;-83
2023/03/10 05:26:06;;;;;;;35.63;18.97;;;0.90;99.90;;;;;;5044642;28;20319;-81
2023/03/10 05:28:32;;;;;;;33.90;19.13;;;0.90;99.90;;;;;;5045898;28;20036;-79
2023/03/10 05:30:58;;;;;;;35.50;19.57;;;0.90;99.90;;;;;;5031536;28;20283;-80
2023/03/10 05:33:24;;;;;;;40.30;20.97;;;0.90;99.90;;;;;;5034600;28;20537;-82
2023/03/10 05:35:49;;;;;;;40.93;21.50;;;0.90;99.90;;;;;;5063612;28;20039;-82
2023/03/10 05:38:15;;;;;;;40.33;21.17;;;0.90;99.90;;;;;;5049870;28;20037;-81
2023/03/10 05:40:43;;;;;;;40.17;21.57;;;0.90;99.90;;;;;;5065373;28;20036;-79
2023/03/10 05:43:09;;;;;;;38.97;21.50;;;0.90;99.90;;;;;;5044243;28;20040;-81
2023/03/10 05:45:34;;;;;;;42.33;23.27;;;0.90;99.90;;;;;;5054135;28;20123;-82
2023/03/10 05:48:00;;;;;;;47.30;24.33;;;0.90;99.90;;;;;;5050222;28;20514;-84
2023/03/10 05:50:30;;;;;;;41.93;23.53;;;0.90;99.90;;;;;;5040372;28;20051;-83
2023/03/10 05:52:55;;;;;;;51.73;25.83;;;0.90;99.90;;;;;;5046563;28;20037;-84
2023/03/10 05:55:22;;;;;;;49.30;25.20;;;0.90;99.90;;;;;;5032880;28;20081;-84
2023/03/10 05:57:48;;;;;;;52.73;25.93;;;0.90;99.90;;;;;;5027288;28;20037;-84
2023/03/10 06:00:14;;;;;;;49.60;26.27;;;0.90;99.90;;;;;;5038719;28;20396;-84
2023/03/10 06:02:40;;;;;;;55.03;28.53;;;0.90;99.90;;;;;;5036417;28;20458;-82
2023/03/10 06:05:09;;;;;;;54.30;27.37;;;0.90;99.90;;;;;;5045328;28;20106;-81
2023/03/10 06:07:35;;;;;;;55.17;28.10;;;0.90;99.90;;;;;;5060966;28;20089;-80
2023/03/10 06:10:01;;;;;;;57.77;28.03;;;0.90;99.90;;;;;;5040128;28;20045;-82
2023/03/10 06:12:27;;;;;;;59.57;29.77;;;0.90;99.90;;;;;;5046416;28;20054;-80
2023/03/10 06:14:52;;;;;;;58.47;29.37;;;0.90;99.90;;;;;;5023995;28;20040;-79
2023/03/10 06:17:18;;;;;;;60.17;30.23;;;0.90;99.90;;;;;;5063297;28;20125;-79
2023/03/10 06:19:44;;;;;;;55.23;28.90;;;0.90;99.90;;;;;;5043579;28;20063;-77
2023/03/10 06:22:10;;;;;;;60.77;30.53;;;0.90;99.90;;;;;;5044924;28;20098;-79
2023/03/10 06:24:35;;;;;;;57.80;29.90;;;0.90;99.90;;;;;;5058351;28;20037;-80
2023/03/10 06:27:01;;;;;;;59.57;29.90;;;1.00;99.90;;;;;;5036149;28;20044;-81
2023/03/10 06:29:27;;;;;;;58.30;30.53;;;1.00;99.90;;;;;;5040114;28;20044;-80
2023/03/10 06:31:53;;;;;;;55.47;28.60;;;1.00;99.90;;;;;;5062362;28;20076;-81
2023/03/10 06:34:18;;;;;;;53.77;27.63;;;1.00;99.90;;;;;;5057541;28;20041;-81
2023/03/10 06:36:44;;;;;;;56.27;28.83;;;1.00;99.90;;;;;;5042964;28;20651;-78
2023/03/10 06:39:10;;;;;;;56.40;28.23;;;1.00;99.90;;;;;;5044777;28;20123;-79
2023/03/10 06:41:36;;;;;;;54.17;27.93;;;1.00;99.90;;;;;;5041733;28;20053;-80
2023/03/10 06:44:02;;;;;;;55.93;29.50;;;1.00;99.90;;;;;;5043749;28;20547;-82
2023/03/10 06:46:28;;;;;;;53.87;27.97;;;1.00;99.90;;;;;;5055054;28;20117;-79
2023/03/10 06:48:53;;;;;;;56.23;29.13;;;1.00;99.90;;;;;;5040414;28;20049;-80
2023/03/10 06:51:19;;;;;;;54.80;28.40;;;1.00;99.90;;;;;;5050200;28;20522;-82
2023/03/10 06:53:46;;;;;;;54.87;27.40;;;1.00;99.90;;;;;;5069649;28;20471;-80
2023/03/10 06:56:21;;;;;;;54.23;28.63;;;1.00;99.90;;;;;;5069008;28;20119;-81
2023/03/10 06:58:48;;;;;;;49.97;26.37;;;1.00;99.90;;;;;;5061457;28;20045;-81
2023/03/10 07:01:26;;;;;;;50.97;26.30;;;1.00;99.90;;;;;;5060655;28;20041;-80
2023/03/10 07:03:52;;;;;;;50.73;26.37;;;1.10;99.90;;;;;;5065809;28;20040;-81
2023/03/10 07:06:17;;;;;;;44.97;24.43;;;1.10;99.90;;;;;;5052426;28;20080;-79
2023/03/10 07:08:43;;;;;;;50.60;25.17;;;1.10;99.90;;;;;;5047671;28;20071;-80
2023/03/10 07:11:09;;;;;;;39.67;21.80;;;1.10;99.90;;;;;;5033640;28;20060;-81
2023/03/10 07:13:35;;;;;;;42.73;22.80;;;1.10;99.90;;;;;;5049584;28;20617;-81
2023/03/10 07:16:01;;;;;;;42.93;23.13;;;1.10;99.90;;;;;;5066591;28;20044;-81
2023/03/10 07:18:28;;;;;;;43.50;23.40;;;1.10;99.90;;;;;;5032341;28;20488;-78
2023/03/10 07:20:55;;;;;;;40.57;22.23;;;1.10;99.90;;;;;;5042905;28;20459;-80
2023/03/10 07:23:22;;;;;;;43.50;23.30;;;1.10;99.90;;;;;;5052345;28;20116;-79
2023/03/10 07:25:52;;;;;;;39.23;22.00;;;1.20;99.90;;;;;;5033107;28;20472;-79
2023/03/10 07:28:18;;;;;;;39.53;22.13;;;1.20;99.90;;;;;;5060972;28;20060;-80
2023/03/10 07:30:43;;;;;;;40.43;22.63;;;1.10;99.90;;;;;;5052140;28;20519;-79
2023/03/10 07:33:10;;;;;;;38.30;21.47;;;1.10;99.90;;;;;;5066826;28;20056;-78
2023/03/10 07:35:36;;;;;;;41.23;23.03;;;1.10;99.90;;;;;;5061927;28;20040;-78
2023/03/10 07:38:02;;;;;;;42.30;22.47;;;1.20;99.90;;;;;;5059852;28;20040;-79
2023/03/10 07:40:28;;;;;;;39.97;21.87;;;1.20;99.90;;;;;;5057047;28;20487;-79
2023/03/10 07:42:54;;;;;;;36.63;20.57;;;1.20;99.90;;;;;;5061816;28;20037;-77
2023/03/10 07:45:21;;;;;;;37.73;21.23;;;1.20;99.90;;;;;;5040637;28;20048;-78
2023/03/10 07:47:48;;;;;;;35.13;21.50;;;1.20;99.90;;;;;;5051948;28;20060;-78
2023/03/10 07:50:14;;;;;;;36.10;20.93;;;1.20;99.90;;;;;;5068279;28;20044;-79
2023/03/10 07:52:40;;;;;;;39.27;21.43;;;1.30;99.90;;;;;;5044065;28;20395;-78
2023/03/10 07:55:06;;;;;;;37.40;21.27;;;1.20;99.90;;;;;;5047071;28;20614;-78
2023/03/10 07:57:32;;;;;;;34.80;20.63;;;1.30;99.90;;;;;;5053689;28;20049;-78
2023/03/10 07:59:57;;;;;;;38.30;22.07;;;1.30;99.90;;;;;;5056778;28;20059;-79
2023/03/10 08:02:23;;;;;;;34.90;20.80;;;1.30;99.90;;;;;;5048101;28;20227;-79
2023/03/10 08:04:49;;;;;;;36.53;20.77;;;1.30;99.90;;;;;;5051652;28;20544;-78
2023/03/10 08:07:14;;;;;;;39.83;21.47;;;1.30;99.90;;;;;;5048839;28;20110;-79
2023/03/10 08:09:40;;;;;;;35.40;20.20;;;1.20;99.90;;;;;;5061039;28;20033;-78
2023/03/10 08:12:06;;;;;;;38.17;20.63;;;1.30;99.90;;;;;;5041218;28;20693;-78
2023/03/10 08:14:32;;;;;;;35.03;19.67;;;1.30;99.90;;;;;;5061270;28;20086;-80
2023/03/10 08:16:58;;;;;;;36.33;20.80;;;1.30;99.90;;;;;;5019359;28;20048;-79
2023/03/10 08:19:25;;;;;;;38.43;20.70;;;1.30;99.90;;;;;;5066890;28;20048;-78
2023/03/10 08:21:56;;;;;;;37.47;21.20;;;1.30;99.90;;;;;;5064502;28;20036;-77
2023/03/10 08:24:23;;;;;;;35.25;19.73;;;1.30;99.90;;;;;;5060230;28;20101;-79
2023/03/10 08:26:49;;;;;;;37.73;21.63;;;1.30;99.90;;;;;;5054496;28;20053;-78
2023/03/10 08:29:15;;;;;;;35.27;20.60;;;1.30;99.90;;;;;;5055440;28;20098;-78
2023/03/10 08:31:41;;;;;;;35.03;20.50;;;1.40;99.90;;;;;;5049975;28;20123;-78
2023/03/10 08:34:07;;;;;;;37.50;20.43;;;1.30;99.90;;;;;;5030158;28;20127;-79
2023/03/10 08:36:32;;;;;;;35.90;20.27;;;1.40;99.90;;;;;;5038110;28;20045;-79
2023/03/10 08:38:59;;;;;;;39.13;21.00;;;1.40;99.90;;;;;;5071912;28;20040;-79
2023/03/10 08:41:37;;;;;;;33.73;20.57;;;1.40;99.90;;;;;;5055932;28;20077;-79
2023/03/10 08:44:05;;;;;;;35.43;20.07;;;1.40;99.90;;;;;;5060668;28;20036;-78
2023/03/10 08:46:32;;;;;;;35.07;20.17;;;1.40;99.90;;;;;;5035756;28;20544;-78
2023/03/10 08:48:58;;;;;;;38.20;21.30;;;1.30;99.90;;;;;;5061534;28;20393;-79
2023/03/10 08:51:24;;;;;;;35.77;21.07;;;1.40;99.90;;;;;;5056376;28;20061;-78
2023/03/10 08:53:51;;;;;;;37.23;21.00;;;1.40;99.90;;;;;;5063796;28;20125;-80
2023/03/10 08:56:19;;;;;;;35.70;20.63;;;1.40;99.90;;;;;;5035021;28;20496;-79
2023/03/10 08:58:45;;;;;;;33.10;19.60;;;1.40;99.90;;;;;;5051726;28;20078;-79
2023/03/10 09:01:13;;;;;;;35.03;20.63;;;1.40;99.90;;;;;;5050032;28;20136;-78
2023/03/10 09:03:40;;;;;;;35.23;20.43;;;1.40;99.90;;;;;;5061848;28;20051;-79
2023/03/10 09:06:06;;;;;;;33.83;20.50;;;1.40;99.90;;;;;;5061226;28;20114;-78
2023/03/10 09:08:32;;;;;;;34.83;20.63;;;1.40;99.90;;;;;;5070257;28;20044;-80
2023/03/10 09:10:58;;;;;;;34.23;20.23;;;1.40;99.90;;;;;;5038904;28;20145;-78
2023/03/10 09:13:24;;;;;;;35.00;20.00;;;1.40;99.90;;;;;;5063875;28;20052;-79
2023/03/10 09:15:51;;;;;;;32.30;19.90;;;1.40;99.90;;;;;;5026902;28;20045;-79
2023/03/10 09:18:18;;;;;;;32.97;20.00;;;1.40;99.90;;;;;;5026783;28;20060;-80
2023/03/10 09:20:45;;;;;;;30.60;18.50;;;1.40;99.90;;;;;;5066664;28;20032;-79
2023/03/10 09:23:12;;;;;;;33.37;19.80;;;1.40;99.90;;;;;;5061263;28;20131;-80
2023/03/10 09:25:41;;;;;;;34.57;20.30;;;1.40;99.90;;;;;;5054779;28;20400;-79
2023/03/10 09:28:10;;;;;;;35.33;20.30;;;1.40;99.90;;;;;;5021144;28;20060;-79
2023/03/10 09:30:38;;;;;;;30.23;18.40;;;1.50;99.90;;;;;;5069496;28;20041;-79
2023/03/10 09:33:06;;;;;;;29.07;18.97;;;1.50;99.90;;;;;;5051216;28;20049;-79
2023/03/10 09:35:32;;;;;;;31.60;18.50;;;1.40;99.90;;;;;;5054839;28;20044;-79
2023/03/10 09:37:58;;;;;;;33.33;20.13;;;1.50;99.90;;;;;;5070285;28;20040;-79
2023/03/10 09:40:24;;;;;;;30.50;19.33;;;1.50;99.90;;;;;;5043932;28;20033;-80
2023/03/10 09:43:02;;;;;;;32.20;19.83;;;1.50;99.90;;;;;;5052459;28;20411;-79
2023/03/10 09:45:37;;;;;;;34.97;19.70;;;1.50;99.90;;;;;;5044479;28;20391;-81
2023/03/10 09:48:09;;;;;;;31.33;19.27;;;1.50;99.90;;;;;;5043815;28;20064;-79
2023/03/10 09:50:55;;;;;;;33.23;20.30;;;1.50;99.90;;;;;;5043553;28;20079;-78
2023/03/10 09:53:49;;;;;;;32.93;20.23;;;1.50;99.90;;;;;;5054221;28;20044;-81
2023/03/10 09:56:22;;;;;;;33.07;19.73;;;1.50;99.90;;;;;;5050799;28;20041;-80
2023/03/10 09:59:10;;;;;;;32.50;18.90;;;1.50;99.90;;;;;;5050930;28;20136;-80
2023/03/10 10:01:38;;;;;;;34.47;19.37;;;1.50;99.90;;;;;;5051694;28;20095;-83
2023/03/10 10:04:12;;;;;;;31.53;19.20;;;1.50;99.90;;;;;;5051436;28;20041;-81
2023/03/10 10:06:42;;;;;;;32.63;18.70;;;1.50;99.90;;;;;;5043981;28;20044;-82
2023/03/10 10:09:28;;;;;;;34.00;18.90;;;1.50;99.90;;;;;;5056396;28;20044;-83
2023/03/10 10:11:55;;;;;;;34.20;20.37;;;1.50;99.90;;;;;;5044197;28;20040;-83
2023/03/10 10:14:23;;;;;;;34.77;20.33;;;1.50;99.90;;;;;;5058172;28;20655;-83
2023/03/10 10:17:04;;;;;;;34.40;19.63;;;1.50;99.90;;;;;;5056954;28;20040;-83
2023/03/10 10:19:31;;;;;;;37.23;20.97;;;1.50;99.90;;;;;;5053630;28;20505;-82
2023/03/10 10:22:27;;;;;;;36.73;21.60;;;1.50;99.90;;;;;;5040741;28;20049;-82
2023/03/10 10:25:08;;;;;;;36.30;20.97;;;1.50;99.90;;;;;;5052137;28;20041;-82
2023/03/10 10:27:35;;;;;;;36.33;21.03;;;1.50;99.90;;;;;;5042949;28;20493;-82
2023/03/10 10:30:26;;;;;;;35.43;21.37;;;1.40;99.90;;;;;;5047676;28;20527;-83
2023/03/10 10:33:00;;;;;;;36.07;20.93;;;1.50;99.90;;;;;;5050758;28;20049;-83
2023/03/10 10:35:29;;;;;;;35.27;21.47;;;1.40;99.90;;;;;;5042877;28;20446;-82
2023/03/10 10:38:00;;;;;;;37.17;22.10;;;1.50;99.90;;;;;;5068890;28;20044;-83
2023/03/10 10:40:29;;;;;;;36.00;21.95;;;1.50;99.90;;;;;;5050631;28;20056;-83
2023/03/10 10:42:59;;;;;;;37.13;22.23;;;1.50;99.90;;;;;;5064383;28;20033;-83
2023/03/10 10:45:33;;;;;;;41.33;22.50;;;1.50;99.90;;;;;;5044296;28;20091;-84
2023/03/10 10:47:59;;;;;;;38.33;22.50;;;1.60;99.90;;;;;;5062402;28;20055;-83
2023/03/10 10:50:28;;;;;;;37.03;22.00;;;1.50;99.90;;;;;;5052486;28;20044;-79
2023/03/10 10:53:15;;;;;;;39.37;22.70;;;1.50;99.90;;;;;;5055259;28;20052;-83
2023/03/10 10:55:43;;;;;;;36.93;21.87;;;1.50;99.90;;;;;;5046346;28;20110;-83
2023/03/10 10:58:27;;;;;;;38.83;22.33;;;1.50;99.90;;;;;;5017832;28;20128;-83
2023/03/10 11:00:59;;;;;;;36.87;21.77;;;1.50;99.90;;;;;;5050745;28;20037;-84
2023/03/10 11:03:31;;;;;;;37.20;21.63;;;1.50;99.90;;;;;;5043018;28;20036;-83
2023/03/10 11:05:56;;;;;;;38.10;22.25;;;1.50;99.90;;;;;;5064890;28;20463;-83
2023/03/10 11:08:25;;;;;;;37.67;21.40;;;1.50;99.90;;;;;;5017832;28;20132;-83
2023/03/10 11:11:17;;;;;;;35.07;21.63;;;1.50;99.90;;;;;;5061947;28;20079;-83
2023/03/10 11:13:55;;;;;;;37.10;22.52;;;1.50;99.90;;;;;;5047891;28;20052;-83
2023/03/10 11:16:48;;;;;;;38.83;22.23;;;1.50;99.90;;;;;;5039408;28;20070;-83
2023/03/10 11:19:23;;;;;;;38.23;21.33;;;1.50;99.90;;;;;;5045268;28;20053;-83
2023/03/10 11:21:55;;;;;;;39.87;22.47;;;1.50;99.90;;;;;;5045727;28;20098;-83
2023/03/10 11:24:32;;;;;;;39.30;23.75;;;1.50;99.90;;;;;;5064536;28;20140;-82
2023/03/10 11:27:14;;;;;;;39.23;22.27;;;1.50;99.90;;;;;;5053069;28;20047;-83
2023/03/10 11:30:07;;;;;;;39.13;21.92;;;1.50;99.90;;;;;;5070383;28;20392;-82
2023/03/10 11:32:42;;;;;;;36.30;21.20;;;1.50;99.90;;;;;;5070224;28;20566;-82
2023/03/10 11:35:44;;;;;;;37.17;21.60;;;1.50;99.90;;;;;;5033712;28;20053;-82
2023/03/10 11:38:13;;;;;;;38.63;22.42;;;1.50;99.90;;;;;;5031385;28;20083;-82
2023/03/10 11:40:53;;;;;;;34.67;21.00;;;1.50;99.90;;;;;;5060683;28;20044;-83
2023/03/10 11:43:32;;;;;;;33.70;20.67;;;1.50;99.90;;;;;;5039514;28;21081;-83
2023/03/10 11:46:09;;;;;;;38.23;21.20;;;1.50;99.90;;;;;;5061243;28;20495;-82
2023/03/10 11:48:56;;;;;;;35.70;21.13;;;1.50;99.90;;;;;;5063587;28;20059;-83
2023/03/10 11:51:32;;;;;;;37.47;21.43;;;1.50;99.90;;;;;;5040070;28;20044;-83
2023/03/10 11:54:02;;;;;;;37.10;21.40;;;1.50;99.90;;;;;;5053967;28;20453;-83
2023/03/10 11:56:29;;;;;;;37.63;20.40;;;1.50;99.90;;;;;;5041362;28;20067;-83
2023/03/10 11:59:15;;;;;;;36.67;20.87;;;1.50;99.90;;;;;;5035292;28;20041;-82
2023/03/10 12:02:03;;;;;;;39.50;20.90;;;1.40;99.90;;;;;;5056441;28;20154;-83
2023/03/10 12:04:51;;;;;;;37.87;20.83;;;1.40;99.90;;;;;;5055972;28;20044;-81
2023/03/10 12:07:30;;;;;;;39.30;22.13;;;1.40;99.90;;;;;;5072139;28;20044;-81
2023/03/10 12:10:16;;;;;;;38.33;22.43;;;1.40;99.90;;;;;;5060296;28;20036;-79
2023/03/10 12:12:45;;;;;;;39.43;21.13;;;1.40;99.90;;;;;;5069061;28;20400;-81
2023/03/10 12:15:21;;;;;;;41.43;22.20;;;1.40;99.90;;;;;;5064380;28;20044;-80
2023/03/10 12:17:48;;;;;;;40.83;21.77;;;1.40;99.90;;;;;;5054797;28;20040;-81
2023/03/10 12:20:16;;;;;;;37.03;22.13;;;1.40;99.90;;;;;;5062340;28;20056;-80
2023/03/10 12:22:45;;;;;;;40.30;22.17;;;1.40;99.90;;;;;;5053063;28;20424;-80
2023/03/10 12:25:29;;;;;;;39.17;23.90;;;1.40;99.90;;;;;;5036739;28;20047;-79
2023/03/10 12:28:29;;;;;;;41.70;23.33;;;1.40;99.90;;;;;;5036044;28;20037;-80
2023/03/10 12:31:01;;;;;;;44.53;23.67;;;1.40;99.90;;;;;;5052335;28;20392;-80
2023/03/10 12:33:29;;;;;;;42.33;22.83;;;1.40;99.90;;;;;;5039582;28;20425;-85
2023/03/10 12:36:04;;;;;;;47.97;24.40;;;1.30;99.90;;;;;;5036785;28;20048;-79
2023/03/10 12:38:49;;;;;;;41.47;23.40;;;1.40;99.90;;;;;;5044097;28;20079;-82
2023/03/10 12:41:27;;;;;;;42.63;23.27;;;1.40;99.90;;;;;;5053807;28;20041;-78
2023/03/10 12:43:58;;;;;;;43.50;22.93;;;1.30;99.90;;;;;;5048688;28;20036;-79
2023/03/10 12:46:39;;;;;;;43.70;23.30;;;1.30;99.90;;;;;;5060292;28;20043;-79